Time;durP1;ratioP1;P1;durP2;ratioP2;P2;SDS_P1;SDS_P2;PMS_P1;PMS_P2;Temp;Humidity;BMP_temperature;BMP_pressure;BME280_temperature;BME280_humidity;BME280_pressure;Samples;Min_cycle;Max_cycle;Signal;HPM_P1;HPM_P2
2022/03/19 00:00:14;;;;;;;538.87;488.03;;;;;;;;;;;;;-55
2022/03/19 00:03:15;;;;;;;546.01;494.87;;;;;;;;;;;;;-54
2022/03/19 00:06:14;;;;;;;541.59;490.70;;;;;;;;;;;;;-57
2022/03/19 00:09:14;;;;;;;543.23;492.29;;;;;;;;;;;;;-54
2022/03/19 00:12:15;;;;;;;542.81;491.75;;;;;;;;;;;;;-57
2022/03/19 00:15:16;;;;;;;539.25;488.43;;;;;;;;;;;;;-58
2022/03/19 00:18:14;;;;;;;545.23;494.19;;;;;;;;;;;;;-58
2022/03/19 00:21:14;;;;;;;547.71;496.35;;;;;;;;;;;;;-58
2022/03/19 00:24:14;;;;;;;543.75;492.47;;;;;;;;;;;;;-55
2022/03/19 00:27:14;;;;;;;544.55;493.37;;;;;;;;;;;;;-58
2022/03/19 00:30:14;;;;;;;543.67;492.63;;;;;;;;;;;;;-58
2022/03/19 00:33:15;;;;;;;542.79;491.71;;;;;;;;;;;;;-56
2022/03/19 00:36:14;;;;;;;541.61;490.55;;;;;;;;;;;;;-55
2022/03/19 00:39:14;;;;;;;546.75;495.55;;;;;;;;;;;;;-58
2022/03/19 00:42:14;;;;;;;547.51;496.35;;;;;;;;;;;;;-56
2022/03/19 00:45:14;;;;;;;542.67;491.75;;;;;;;;;;;;;-58
2022/03/19 00:48:14;;;;;;;539.89;488.89;;;;;;;;;;;;;-58
2022/03/19 00:51:14;;;;;;;541.39;490.24;;;;;;;;;;;;;-58
2022/03/19 00:54:15;;;;;;;541.88;490.75;;;;;;;;;;;;;-57
2022/03/19 00:57:14;;;;;;;542.03;490.98;;;;;;;;;;;;;-58
2022/03/19 01:00:15;;;;;;;536.89;485.90;;;;;;;;;;;;;-58
2022/03/19 01:03:15;;;;;;;540.39;489.34;;;;;;;;;;;;;-57
2022/03/19 01:06:14;;;;;;;535.69;484.93;;;;;;;;;;;;;-58
2022/03/19 01:09:14;;;;;;;539.19;488.15;;;;;;;;;;;;;-58
2022/03/19 01:12:14;;;;;;;538.91;487.83;;;;;;;;;;;;;-58
2022/03/19 01:15:15;;;;;;;543.38;492.17;;;;;;;;;;;;;-57
2022/03/19 01:18:14;;;;;;;542.03;490.91;;;;;;;;;;;;;-58
2022/03/19 01:21:14;;;;;;;539.67;488.63;;;;;;;;;;;;;-57
2022/03/19 01:24:14;;;;;;;537.55;486.61;;;;;;;;;;;;;-57
2022/03/19 01:27:14;;;;;;;538.53;487.61;;;;;;;;;;;;;-58
2022/03/19 01:30:14;;;;;;;538.37;487.32;;;;;;;;;;;;;-56
2022/03/19 01:33:14;;;;;;;540.07;489.03;;;;;;;;;;;;;-58
2022/03/19 01:36:14;;;;;;;540.19;489.09;;;;;;;;;;;;;-58
2022/03/19 01:39:14;;;;;;;537.49;486.53;;;;;;;;;;;;;-57
2022/03/19 01:42:14;;;;;;;539.71;488.71;;;;;;;;;;;;;-55
2022/03/19 01:45:14;;;;;;;539.11;488.11;;;;;;;;;;;;;-53
2022/03/19 01:48:14;;;;;;;537.85;486.86;;;;;;;;;;;;;-57
2022/03/19 01:51:14;;;;;;;535.83;484.89;;;;;;;;;;;;;-58
2022/03/19 01:54:14;;;;;;;534.90;483.99;;;;;;;;;;;;;-57
2022/03/19 01:57:14;;;;;;;537.60;486.61;;;;;;;;;;;;;-59
2022/03/19 02:00:16;;;;;;;540.15;489.01;;;;;;;;;;;;;-58
2022/03/19 02:03:14;;;;;;;537.15;486.20;;;;;;;;;;;;;-57
2022/03/19 02:06:14;;;;;;;530.67;479.93;;;;;;;;;;;;;-58
2022/03/19 02:09:14;;;;;;;537.98;487.03;;;;;;;;;;;;;-58
2022/03/19 02:12:14;;;;;;;532.60;481.75;;;;;;;;;;;;;-55
2022/03/19 02:15:14;;;;;;;533.53;482.61;;;;;;;;;;;;;-57
2022/03/19 02:18:14;;;;;;;532.56;481.66;;;;;;;;;;;;;-57
2022/03/19 02:21:14;;;;;;;530.79;479.95;;;;;;;;;;;;;-56
2022/03/19 02:27:15;;;;;;;536.87;485.86;;;;;;;;;;;;;-57
2022/03/19 02:30:15;;;;;;;534.94;483.95;;;;;;;;;;;;;-55
2022/03/19 02:33:14;;;;;;;533.65;482.69;;;;;;;;;;;;;-58
2022/03/19 02:36:14;;;;;;;531.76;480.83;;;;;;;;;;;;;-58
2022/03/19 02:39:16;;;;;;;536.19;485.12;;;;;;;;;;;;;-58
2022/03/19 02:42:14;;;;;;;532.39;481.52;;;;;;;;;;;;;-59
2022/03/19 02:45:14;;;;;;;533.22;482.45;;;;;;;;;;;;;-57
2022/03/19 02:48:14;;;;;;;529.56;478.83;;;;;;;;;;;;;-57
2022/03/19 02:51:14;;;;;;;529.17;478.45;;;;;;;;;;;;;-57
2022/03/19 02:54:14;;;;;;;531.86;481.02;;;;;;;;;;;;;-57
2022/03/19 02:57:14;;;;;;;534.43;483.52;;;;;;;;;;;;;-57
2022/03/19 03:00:14;;;;;;;528.65;478.10;;;;;;;;;;;;;-58
2022/03/19 03:03:14;;;;;;;532.69;481.85;;;;;;;;;;;;;-58
2022/03/19 03:06:14;;;;;;;531.45;480.72;;;;;;;;;;;;;-57
2022/03/19 03:09:14;;;;;;;532.60;481.73;;;;;;;;;;;;;-57
2022/03/19 03:12:14;;;;;;;530.38;479.69;;;;;;;;;;;;;-58
2022/03/19 03:15:14;;;;;;;531.37;480.59;;;;;;;;;;;;;-58
2022/03/19 03:18:14;;;;;;;532.71;481.93;;;;;;;;;;;;;-58
2022/03/19 03:21:14;;;;;;;530.21;479.53;;;;;;;;;;;;;-58
2022/03/19 03:24:14;;;;;;;527.72;477.18;;;;;;;;;;;;;-58
2022/03/19 03:27:14;;;;;;;527.96;477.41;;;;;;;;;;;;;-59
2022/03/19 03:30:15;;;;;;;524.92;474.48;;;;;;;;;;;;;-58
2022/03/19 03:33:14;;;;;;;528.09;477.49;;;;;;;;;;;;;-58
2022/03/19 03:36:14;;;;;;;526.15;475.61;;;;;;;;;;;;;-58
2022/03/19 03:39:14;;;;;;;527.21;476.65;;;;;;;;;;;;;-58
2022/03/19 03:42:15;;;;;;;526.59;476.06;;;;;;;;;;;;;-58
2022/03/19 03:45:14;;;;;;;522.27;471.83;;;;;;;;;;;;;-58
2022/03/19 03:48:14;;;;;;;524.49;474.07;;;;;;;;;;;;;-57
2022/03/19 03:51:14;;;;;;;522.29;471.99;;;;;;;;;;;;;-57
2022/03/19 03:54:14;;;;;;;521.54;471.25;;;;;;;;;;;;;-59
2022/03/19 03:57:14;;;;;;;524.09;473.53;;;;;;;;;;;;;-58
2022/03/19 04:00:14;;;;;;;519.77;469.48;;;;;;;;;;;;;-58
2022/03/19 04:03:14;;;;;;;520.33;469.95;;;;;;;;;;;;;-59
2022/03/19 04:06:14;;;;;;;523.58;473.19;;;;;;;;;;;;;-58
2022/03/19 04:09:14;;;;;;;523.69;473.18;;;;;;;;;;;;;-58
2022/03/19 04:12:15;;;;;;;524.29;473.83;;;;;;;;;;;;;-58
2022/03/19 04:15:14;;;;;;;525.31;474.65;;;;;;;;;;;;;-55
2022/03/19 04:18:14;;;;;;;524.39;473.95;;;;;;;;;;;;;-55
2022/03/19 04:21:14;;;;;;;525.77;475.19;;;;;;;;;;;;;-58
2022/03/19 04:24:14;;;;;;;528.15;477.30;;;;;;;;;;;;;-59
2022/03/19 04:27:14;;;;;;;520.71;470.21;;;;;;;;;;;;;-57
2022/03/19 04:30:14;;;;;;;522.61;472.08;;;;;;;;;;;;;-55
2022/03/19 04:33:14;;;;;;;522.38;471.90;;;;;;;;;;;;;-57
2022/03/19 04:36:32;;;;;;;522.37;471.93;;;;;;;;;;;;;-58
2022/03/19 04:39:14;;;;;;;520.29;469.72;;;;;;;;;;;;;-58
2022/03/19 04:42:14;;;;;;;523.79;473.18;;;;;;;;;;;;;-57
2022/03/19 04:45:14;;;;;;;523.34;472.93;;;;;;;;;;;;;-58
2022/03/19 04:48:14;;;;;;;521.97;471.52;;;;;;;;;;;;;-58
2022/03/19 04:51:14;;;;;;;521.22;470.67;;;;;;;;;;;;;-57
2022/03/19 04:54:14;;;;;;;524.12;473.50;;;;;;;;;;;;;-58
2022/03/19 04:57:14;;;;;;;519.82;469.44;;;;;;;;;;;;;-59
2022/03/19 05:00:16;;;;;;;520.35;469.87;;;;;;;;;;;;;-57
2022/03/19 05:03:14;;;;;;;517.18;466.81;;;;;;;;;;;;;-58
2022/03/19 05:06:14;;;;;;;520.98;470.49;;;;;;;;;;;;;-58
2022/03/19 05:12:14;;;;;;;522.26;471.73;;;;;;;;;;;;;-57
2022/03/19 05:15:14;;;;;;;526.19;475.55;;;;;;;;;;;;;-57
2022/03/19 05:18:14;;;;;;;522.15;471.73;;;;;;;;;;;;;-57
2022/03/19 05:21:14;;;;;;;522.57;471.91;;;;;;;;;;;;;-58
2022/03/19 05:24:14;;;;;;;524.05;473.53;;;;;;;;;;;;;-57
2022/03/19 05:27:14;;;;;;;522.41;471.83;;;;;;;;;;;;;-57
2022/03/19 05:30:14;;;;;;;521.55;471.21;;;;;;;;;;;;;-59
2022/03/19 05:33:14;;;;;;;521.95;471.29;;;;;;;;;;;;;-58
2022/03/19 05:36:14;;;;;;;517.08;466.65;;;;;;;;;;;;;-58
2022/03/19 05:39:14;;;;;;;517.23;466.94;;;;;;;;;;;;;-57
2022/03/19 05:42:14;;;;;;;521.55;471.01;;;;;;;;;;;;;-57
2022/03/19 05:45:15;;;;;;;519.22;468.78;;;;;;;;;;;;;-58
2022/03/19 05:48:14;;;;;;;515.67;465.47;;;;;;;;;;;;;-58
2022/03/19 05:51:14;;;;;;;521.76;471.33;;;;;;;;;;;;;-58
2022/03/19 05:54:14;;;;;;;516.89;466.62;;;;;;;;;;;;;-58
2022/03/19 05:57:14;;;;;;;517.18;466.79;;;;;;;;;;;;;-54
2022/03/19 06:00:14;;;;;;;516.25;465.89;;;;;;;;;;;;;-54
2022/03/19 06:03:14;;;;;;;515.84;465.52;;;;;;;;;;;;;-57
2022/03/19 06:06:14;;;;;;;515.45;465.13;;;;;;;;;;;;;-59
2022/03/19 06:09:14;;;;;;;510.55;460.58;;;;;;;;;;;;;-59
2022/03/19 06:12:14;;;;;;;516.91;466.58;;;;;;;;;;;;;-59
2022/03/19 06:15:14;;;;;;;513.90;463.69;;;;;;;;;;;;;-54
2022/03/19 06:18:14;;;;;;;515.47;465.33;;;;;;;;;;;;;-54
2022/03/19 06:21:14;;;;;;;520.71;470.24;;;;;;;;;;;;;-58
2022/03/19 06:24:14;;;;;;;516.39;466.01;;;;;;;;;;;;;-58
2022/03/19 06:27:14;;;;;;;516.81;466.49;;;;;;;;;;;;;-58
2022/03/19 06:30:14;;;;;;;511.36;461.18;;;;;;;;;;;;;-58
2022/03/19 06:33:14;;;;;;;515.91;465.79;;;;;;;;;;;;;-58
2022/03/19 06:39:14;;;;;;;522.33;471.92;;;;;;;;;;;;;-57
2022/03/19 06:42:14;;;;;;;520.40;469.97;;;;;;;;;;;;;-58
2022/03/19 06:45:14;;;;;;;522.96;472.51;;;;;;;;;;;;;-57
2022/03/19 06:48:14;;;;;;;521.23;470.77;;;;;;;;;;;;;-57
2022/03/19 06:51:14;;;;;;;519.63;469.27;;;;;;;;;;;;;-58
2022/03/19 06:54:14;;;;;;;519.11;468.69;;;;;;;;;;;;;-57
2022/03/19 06:57:14;;;;;;;521.95;471.60;;;;;;;;;;;;;-57
2022/03/19 07:00:14;;;;;;;520.49;470.02;;;;;;;;;;;;;-57
2022/03/19 07:03:14;;;;;;;521.04;470.65;;;;;;;;;;;;;-55
2022/03/19 07:06:15;;;;;;;518.91;468.51;;;;;;;;;;;;;-57
2022/03/19 07:09:14;;;;;;;522.87;472.47;;;;;;;;;;;;;-57
2022/03/19 07:12:14;;;;;;;518.67;468.38;;;;;;;;;;;;;-57
2022/03/19 07:15:15;;;;;;;521.38;470.93;;;;;;;;;;;;;-58
2022/03/19 07:18:14;;;;;;;522.62;472.11;;;;;;;;;;;;;-59
2022/03/19 07:21:15;;;;;;;518.59;468.25;;;;;;;;;;;;;-53
2022/03/19 07:24:14;;;;;;;517.19;467.03;;;;;;;;;;;;;-59
2022/03/19 07:27:14;;;;;;;519.26;468.93;;;;;;;;;;;;;-54
2022/03/19 07:30:14;;;;;;;519.59;469.23;;;;;;;;;;;;;-55
2022/03/19 07:33:14;;;;;;;514.90;464.75;;;;;;;;;;;;;-58
2022/03/19 07:36:14;;;;;;;516.05;465.91;;;;;;;;;;;;;-54
2022/03/19 07:39:14;;;;;;;521.17;470.71;;;;;;;;;;;;;-54
2022/03/19 07:42:14;;;;;;;515.99;465.75;;;;;;;;;;;;;-53
2022/03/19 07:45:14;;;;;;;518.40;468.17;;;;;;;;;;;;;-58
2022/03/19 07:48:14;;;;;;;518.55;468.24;;;;;;;;;;;;;-59
2022/03/19 07:51:14;;;;;;;516.10;465.85;;;;;;;;;;;;;-55
2022/03/19 07:54:14;;;;;;;513.67;463.57;;;;;;;;;;;;;-54
2022/03/19 07:57:14;;;;;;;508.93;459.08;;;;;;;;;;;;;-58
2022/03/19 08:00:14;;;;;;;512.47;462.38;;;;;;;;;;;;;-58
2022/03/19 08:03:14;;;;;;;511.67;461.65;;;;;;;;;;;;;-54
2022/03/19 08:06:14;;;;;;;512.17;462.23;;;;;;;;;;;;;-59
2022/03/19 08:09:14;;;;;;;512.20;462.28;;;;;;;;;;;;;-58
2022/03/19 08:12:14;;;;;;;512.83;462.79;;;;;;;;;;;;;-57
2022/03/19 08:15:14;;;;;;;511.29;461.26;;;;;;;;;;;;;-58
2022/03/19 08:18:15;;;;;;;513.45;463.51;;;;;;;;;;;;;-54
2022/03/19 08:21:14;;;;;;;512.09;461.93;;;;;;;;;;;;;-59
2022/03/19 08:24:14;;;;;;;512.53;462.49;;;;;;;;;;;;;-59
2022/03/19 08:27:14;;;;;;;509.45;459.44;;;;;;;;;;;;;-58
2022/03/19 08:30:14;;;;;;;509.14;459.29;;;;;;;;;;;;;-54
2022/03/19 08:33:14;;;;;;;508.87;458.89;;;;;;;;;;;;;-59
2022/03/19 08:36:14;;;;;;;515.99;465.85;;;;;;;;;;;;;-57
2022/03/19 08:42:14;;;;;;;513.40;463.35;;;;;;;;;;;;;-58
2022/03/19 08:45:14;;;;;;;509.29;459.30;;;;;;;;;;;;;-58
2022/03/19 08:48:14;;;;;;;511.47;461.49;;;;;;;;;;;;;-58
2022/03/19 08:51:42;;;;;;;516.69;466.15;;;;;;;;;;;;;-51
2022/03/19 08:54:14;;;;;;;507.69;456.82;;;;;;;;;;;;;-54
2022/03/19 08:57:14;;;;;;;505.41;454.37;;;;;;;;;;;;;-60
2022/03/19 09:00:14;;;;;;;498.30;448.05;;;;;;;;;;;;;-57
2022/03/19 09:03:14;;;;;;;502.54;451.71;;;;;;;;;;;;;-55
2022/03/19 09:06:14;;;;;;;501.38;450.37;;;;;;;;;;;;;-54
2022/03/19 09:09:17;;;;;;;502.87;451.23;;;;;;;;;;;;;-56
2022/03/19 09:12:14;;;;;;;505.63;454.73;;;;;;;;;;;;;-53
2022/03/19 09:15:14;;;;;;;513.30;461.79;;;;;;;;;;;;;-57
2022/03/19 09:18:15;;;;;;;516.22;465.01;;;;;;;;;;;;;-55
2022/03/19 09:21:14;;;;;;;519.94;468.77;;;;;;;;;;;;;-56
2022/03/19 09:24:15;;;;;;;515.07;464.18;;;;;;;;;;;;;-56
2022/03/19 09:27:14;;;;;;;523.41;472.09;;;;;;;;;;;;;-59
2022/03/19 09:30:14;;;;;;;520.82;469.69;;;;;;;;;;;;;-54
2022/03/19 09:33:14;;;;;;;526.31;475.18;;;;;;;;;;;;;-51
2022/03/19 09:36:14;;;;;;;524.64;473.44;;;;;;;;;;;;;-55
2022/03/19 09:39:14;;;;;;;521.93;470.97;;;;;;;;;;;;;-49
2022/03/19 09:42:14;;;;;;;519.43;468.46;;;;;;;;;;;;;-55
2022/03/19 09:45:14;;;;;;;520.81;469.88;;;;;;;;;;;;;-54
2022/03/19 09:48:14;;;;;;;529.87;478.69;;;;;;;;;;;;;-59
2022/03/19 09:51:14;;;;;;;532.83;481.48;;;;;;;;;;;;;-61
2022/03/19 09:54:14;;;;;;;535.51;483.91;;;;;;;;;;;;;-58
2022/03/19 09:57:14;;;;;;;530.23;478.88;;;;;;;;;;;;;-62
2022/03/19 10:00:14;;;;;;;535.01;483.53;;;;;;;;;;;;;-52
2022/03/19 10:03:14;;;;;;;536.80;484.57;;;;;;;;;;;;;-53
2022/03/19 10:09:14;;;;;;;538.10;486.33;;;;;;;;;;;;;-50
2022/03/19 10:12:15;;;;;;;538.38;486.57;;;;;;;;;;;;;-62
2022/03/19 10:15:14;;;;;;;544.05;492.17;;;;;;;;;;;;;-51
2022/03/19 10:18:14;;;;;;;547.55;495.43;;;;;;;;;;;;;-52
2022/03/19 10:21:14;;;;;;;553.87;501.44;;;;;;;;;;;;;-53
2022/03/19 10:24:14;;;;;;;558.09;505.71;;;;;;;;;;;;;-55
2022/03/19 10:27:14;;;;;;;556.45;503.89;;;;;;;;;;;;;-56
2022/03/19 10:30:16;;;;;;;563.33;510.69;;;;;;;;;;;;;-54
2022/03/19 10:33:14;;;;;;;562.31;509.67;;;;;;;;;;;;;-57
2022/03/19 10:36:14;;;;;;;563.13;510.65;;;;;;;;;;;;;-57
2022/03/19 10:39:14;;;;;;;569.46;516.16;;;;;;;;;;;;;-55
2022/03/19 10:42:14;;;;;;;571.97;519.06;;;;;;;;;;;;;-56
2022/03/19 10:45:14;;;;;;;576.25;523.11;;;;;;;;;;;;;-57
2022/03/19 10:48:14;;;;;;;574.18;521.09;;;;;;;;;;;;;-58
2022/03/19 10:51:14;;;;;;;575.69;522.55;;;;;;;;;;;;;-58
2022/03/19 10:54:14;;;;;;;576.80;523.71;;;;;;;;;;;;;-63
2022/03/19 10:57:14;;;;;;;578.85;525.70;;;;;;;;;;;;;-56
2022/03/19 11:00:14;;;;;;;583.45;530.04;;;;;;;;;;;;;-55
2022/03/19 11:03:14;;;;;;;584.25;530.82;;;;;;;;;;;;;-54
2022/03/19 11:06:14;;;;;;;580.33;527.22;;;;;;;;;;;;;-57
2022/03/19 11:09:14;;;;;;;581.03;527.79;;;;;;;;;;;;;-57
2022/03/19 11:12:14;;;;;;;582.35;529.16;;;;;;;;;;;;;-52
2022/03/19 11:15:14;;;;;;;585.25;531.71;;;;;;;;;;;;;-55
2022/03/19 11:18:14;;;;;;;581.41;528.16;;;;;;;;;;;;;-53
2022/03/19 11:21:14;;;;;;;580.74;527.77;;;;;;;;;;;;;-54
2022/03/19 11:24:15;;;;;;;582.33;529.11;;;;;;;;;;;;;-57
2022/03/19 11:27:14;;;;;;;590.15;536.15;;;;;;;;;;;;;-52
2022/03/19 11:30:14;;;;;;;585.68;532.35;;;;;;;;;;;;;-52
2022/03/19 11:33:14;;;;;;;588.99;535.37;;;;;;;;;;;;;-57
2022/03/19 11:36:14;;;;;;;590.45;536.77;;;;;;;;;;;;;-58
2022/03/19 11:39:14;;;;;;;585.71;532.05;;;;;;;;;;;;;-52
2022/03/19 11:42:14;;;;;;;588.14;534.51;;;;;;;;;;;;;-51
2022/03/19 11:45:14;;;;;;;584.65;531.37;;;;;;;;;;;;;-53
2022/03/19 11:48:14;;;;;;;583.08;529.74;;;;;;;;;;;;;-51
2022/03/19 11:51:14;;;;;;;580.37;527.14;;;;;;;;;;;;;-58
2022/03/19 11:54:17;;;;;;;587.45;533.98;;;;;;;;;;;;;-56
2022/03/19 11:57:14;;;;;;;587.25;533.83;;;;;;;;;;;;;-56
2022/03/19 12:00:14;;;;;;;585.66;532.35;;;;;;;;;;;;;-51
2022/03/19 12:03:15;;;;;;;588.61;535.00;;;;;;;;;;;;;-52
2022/03/19 12:06:14;;;;;;;585.05;531.74;;;;;;;;;;;;;-52
2022/03/19 12:09:14;;;;;;;586.23;532.90;;;;;;;;;;;;;-52
2022/03/19 12:12:15;;;;;;;587.28;533.95;;;;;;;;;;;;;-52
2022/03/19 12:15:14;;;;;;;593.67;540.23;;;;;;;;;;;;;-53
2022/03/19 12:20:14;;;;;;;577.94;524.91;;;;;;;;;;;;;-56
2022/03/19 12:23:14;;;;;;;588.27;534.97;;;;;;;;;;;;;-56
2022/03/19 12:26:14;;;;;;;589.33;535.94;;;;;;;;;;;;;-52
2022/03/19 12:29:14;;;;;;;590.59;537.05;;;;;;;;;;;;;-58
2022/03/19 12:32:15;;;;;;;593.66;540.15;;;;;;;;;;;;;-58
2022/03/19 12:35:14;;;;;;;592.43;538.93;;;;;;;;;;;;;-52
2022/03/19 12:38:14;;;;;;;594.39;540.75;;;;;;;;;;;;;-58
2022/03/19 12:41:27;;;;;;;596.95;543.29;;;;;;;;;;;;;-52
2022/03/19 12:44:14;;;;;;;600.43;546.65;;;;;;;;;;;;;-52
2022/03/19 12:47:14;;;;;;;597.43;543.65;;;;;;;;;;;;;-51
2022/03/19 12:50:14;;;;;;;599.08;545.26;;;;;;;;;;;;;-51
2022/03/19 12:53:14;;;;;;;600.17;546.11;;;;;;;;;;;;;-56
2022/03/19 12:56:14;;;;;;;600.65;546.73;;;;;;;;;;;;;-52
2022/03/19 12:59:14;;;;;;;598.02;544.30;;;;;;;;;;;;;-51
2022/03/19 13:02:15;;;;;;;598.22;544.34;;;;;;;;;;;;;-51
2022/03/19 13:05:14;;;;;;;602.89;548.96;;;;;;;;;;;;;-52
2022/03/19 13:08:14;;;;;;;603.33;549.33;;;;;;;;;;;;;-52
2022/03/19 13:11:15;;;;;;;599.05;545.22;;;;;;;;;;;;;-58
2022/03/19 13:14:15;;;;;;;602.67;548.65;;;;;;;;;;;;;-58
2022/03/19 13:17:14;;;;;;;607.81;553.62;;;;;;;;;;;;;-52
2022/03/19 13:20:14;;;;;;;607.35;553.11;;;;;;;;;;;;;-52
2022/03/19 13:23:14;;;;;;;606.61;552.49;;;;;;;;;;;;;-58
2022/03/19 13:26:16;;;;;;;603.43;549.36;;;;;;;;;;;;;-52
2022/03/19 13:29:14;;;;;;;605.85;551.63;;;;;;;;;;;;;-58
2022/03/19 13:32:14;;;;;;;608.40;554.26;;;;;;;;;;;;;-56
2022/03/19 13:35:14;;;;;;;609.45;555.21;;;;;;;;;;;;;-55
2022/03/19 13:38:14;;;;;;;609.24;554.97;;;;;;;;;;;;;-61
2022/03/19 13:41:14;;;;;;;610.15;555.93;;;;;;;;;;;;;-61
2022/03/19 13:44:14;;;;;;;613.08;558.59;;;;;;;;;;;;;-57
2022/03/19 13:47:14;;;;;;;613.59;558.92;;;;;;;;;;;;;-59
2022/03/19 13:50:15;;;;;;;610.51;556.08;;;;;;;;;;;;;-51
2022/03/19 13:53:14;;;;;;;617.41;562.89;;;;;;;;;;;;;-50
2022/03/19 13:56:14;;;;;;;607.79;553.51;;;;;;;;;;;;;-51
2022/03/19 13:59:14;;;;;;;608.77;554.52;;;;;;;;;;;;;-45
2022/03/19 14:02:14;;;;;;;609.29;554.76;;;;;;;;;;;;;-53
2022/03/19 14:05:14;;;;;;;609.81;555.29;;;;;;;;;;;;;-52
2022/03/19 14:08:14;;;;;;;616.26;561.39;;;;;;;;;;;;;-58
2022/03/19 14:11:14;;;;;;;613.52;559.10;;;;;;;;;;;;;-58
2022/03/19 14:14:14;;;;;;;614.97;560.46;;;;;;;;;;;;;-58
2022/03/19 14:17:14;;;;;;;612.99;558.52;;;;;;;;;;;;;-59
2022/03/19 14:20:14;;;;;;;613.73;559.01;;;;;;;;;;;;;-58
2022/03/19 14:23:16;;;;;;;612.49;558.08;;;;;;;;;;;;;-61
2022/03/19 14:26:15;;;;;;;617.07;562.53;;;;;;;;;;;;;-62
2022/03/19 14:29:14;;;;;;;613.93;559.27;;;;;;;;;;;;;-54
2022/03/19 14:32:14;;;;;;;617.13;562.59;;;;;;;;;;;;;-56
2022/03/19 14:35:14;;;;;;;616.63;561.91;;;;;;;;;;;;;-62
2022/03/19 14:38:14;;;;;;;618.18;563.37;;;;;;;;;;;;;-55
2022/03/19 14:41:14;;;;;;;615.64;561.00;;;;;;;;;;;;;-56
2022/03/19 14:44:16;;;;;;;614.46;559.81;;;;;;;;;;;;;-56
2022/03/19 14:47:14;;;;;;;622.93;567.91;;;;;;;;;;;;;-56
2022/03/19 14:50:14;;;;;;;626.87;571.77;;;;;;;;;;;;;-60
2022/03/19 14:53:14;;;;;;;623.95;568.95;;;;;;;;;;;;;-59
2022/03/19 14:56:14;;;;;;;625.73;570.87;;;;;;;;;;;;;-56
2022/03/19 14:59:14;;;;;;;624.44;569.50;;;;;;;;;;;;;-58
2022/03/19 15:02:14;;;;;;;628.53;573.37;;;;;;;;;;;;;-60
2022/03/19 15:05:14;;;;;;;629.01;573.86;;;;;;;;;;;;;-59
2022/03/19 15:08:14;;;;;;;628.55;573.35;;;;;;;;;;;;;-63
2022/03/19 15:11:14;;;;;;;626.33;571.33;;;;;;;;;;;;;-58
2022/03/19 15:14:14;;;;;;;629.15;574.03;;;;;;;;;;;;;-53
2022/03/19 15:17:15;;;;;;;629.48;574.27;;;;;;;;;;;;;-59
2022/03/19 15:20:15;;;;;;;632.16;576.96;;;;;;;;;;;;;-53
2022/03/19 15:23:14;;;;;;;626.34;571.38;;;;;;;;;;;;;-56
2022/03/19 15:26:14;;;;;;;624.02;569.03;;;;;;;;;;;;;-63
2022/03/19 15:29:14;;;;;;;621.75;566.94;;;;;;;;;;;;;-53
2022/03/19 15:32:14;;;;;;;623.95;568.91;;;;;;;;;;;;;-52
2022/03/19 15:35:14;;;;;;;624.24;569.17;;;;;;;;;;;;;-58
2022/03/19 15:38:14;;;;;;;624.58;569.61;;;;;;;;;;;;;-55
2022/03/19 15:41:19;;;;;;;626.00;571.01;;;;;;;;;;;;;-56
2022/03/19 15:44:14;;;;;;;620.22;565.15;;;;;;;;;;;;;-57
2022/03/19 15:47:14;;;;;;;622.00;567.09;;;;;;;;;;;;;-61
2022/03/19 15:50:16;;;;;;;624.71;569.83;;;;;;;;;;;;;-58
2022/03/19 15:53:14;;;;;;;623.95;568.77;;;;;;;;;;;;;-56
2022/03/19 15:56:14;;;;;;;621.74;566.71;;;;;;;;;;;;;-55
2022/03/19 15:59:14;;;;;;;622.22;567.21;;;;;;;;;;;;;-53
2022/03/19 16:02:14;;;;;;;624.85;569.97;;;;;;;;;;;;;-54
2022/03/19 16:05:14;;;;;;;627.92;572.79;;;;;;;;;;;;;-56
2022/03/19 16:08:14;;;;;;;629.59;574.49;;;;;;;;;;;;;-55
2022/03/19 16:11:14;;;;;;;627.53;572.43;;;;;;;;;;;;;-56
2022/03/19 16:14:14;;;;;;;630.75;575.37;;;;;;;;;;;;;-58
2022/03/19 16:17:14;;;;;;;632.54;577.39;;;;;;;;;;;;;-56
2022/03/19 16:20:16;;;;;;;634.71;579.31;;;;;;;;;;;;;-57
2022/03/19 16:23:14;;;;;;;636.34;580.90;;;;;;;;;;;;;-57
2022/03/19 16:26:15;;;;;;;634.49;579.11;;;;;;;;;;;;;-59
2022/03/19 16:29:14;;;;;;;632.17;577.01;;;;;;;;;;;;;-59
2022/03/19 16:32:14;;;;;;;638.42;582.93;;;;;;;;;;;;;-53
2022/03/19 16:35:14;;;;;;;632.93;577.49;;;;;;;;;;;;;-57
2022/03/19 16:38:14;;;;;;;634.39;578.80;;;;;;;;;;;;;-60
2022/03/19 16:41:14;;;;;;;634.75;579.25;;;;;;;;;;;;;-58
2022/03/19 16:44:14;;;;;;;634.66;579.35;;;;;;;;;;;;;-52
2022/03/19 16:47:14;;;;;;;633.33;577.63;;;;;;;;;;;;;-58
2022/03/19 16:50:14;;;;;;;639.35;583.65;;;;;;;;;;;;;-59
2022/03/19 16:53:14;;;;;;;638.43;582.77;;;;;;;;;;;;;-57
2022/03/19 16:56:14;;;;;;;637.21;581.48;;;;;;;;;;;;;-59
2022/03/19 16:59:14;;;;;;;636.53;580.94;;;;;;;;;;;;;-56
2022/03/19 17:02:14;;;;;;;633.94;578.57;;;;;;;;;;;;;-56
2022/03/19 17:05:14;;;;;;;639.57;583.84;;;;;;;;;;;;;-62
2022/03/19 17:08:14;;;;;;;642.47;586.79;;;;;;;;;;;;;-61
2022/03/19 17:11:14;;;;;;;638.96;583.40;;;;;;;;;;;;;-60
2022/03/19 17:14:14;;;;;;;637.39;582.03;;;;;;;;;;;;;-59
2022/03/19 17:17:14;;;;;;;639.67;584.03;;;;;;;;;;;;;-62
2022/03/19 17:20:14;;;;;;;641.25;585.47;;;;;;;;;;;;;-57
2022/03/19 17:23:14;;;;;;;638.17;582.60;;;;;;;;;;;;;-59
2022/03/19 17:26:14;;;;;;;641.65;585.95;;;;;;;;;;;;;-57
2022/03/19 17:29:14;;;;;;;640.50;584.93;;;;;;;;;;;;;-58
2022/03/19 17:32:14;;;;;;;638.83;583.25;;;;;;;;;;;;;-57
2022/03/19 17:35:14;;;;;;;642.65;586.62;;;;;;;;;;;;;-58
2022/03/19 17:38:14;;;;;;;641.00;585.31;;;;;;;;;;;;;-58
2022/03/19 17:41:14;;;;;;;642.25;586.51;;;;;;;;;;;;;-58
2022/03/19 17:44:14;;;;;;;646.40;590.54;;;;;;;;;;;;;-58
2022/03/19 17:47:14;;;;;;;646.93;590.97;;;;;;;;;;;;;-58
2022/03/19 17:50:14;;;;;;;645.37;589.56;;;;;;;;;;;;;-58
2022/03/19 17:53:14;;;;;;;642.19;586.63;;;;;;;;;;;;;-57
2022/03/19 17:56:14;;;;;;;646.26;590.47;;;;;;;;;;;;;-57
2022/03/19 17:59:14;;;;;;;645.83;590.04;;;;;;;;;;;;;-58
2022/03/19 18:02:14;;;;;;;644.50;588.65;;;;;;;;;;;;;-56
2022/03/19 18:05:14;;;;;;;643.87;588.01;;;;;;;;;;;;;-58
2022/03/19 18:08:14;;;;;;;642.99;587.27;;;;;;;;;;;;;-56
2022/03/19 18:11:14;;;;;;;640.31;584.77;;;;;;;;;;;;;-60
2022/03/19 18:14:16;;;;;;;640.16;584.67;;;;;;;;;;;;;-52
2022/03/19 18:17:14;;;;;;;641.71;586.12;;;;;;;;;;;;;-52
2022/03/19 18:20:14;;;;;;;641.46;585.83;;;;;;;;;;;;;-60
2022/03/19 18:23:14;;;;;;;636.14;580.58;;;;;;;;;;;;;-53
2022/03/19 18:26:14;;;;;;;637.49;582.06;;;;;;;;;;;;;-57
2022/03/19 18:29:15;;;;;;;637.85;582.03;;;;;;;;;;;;;-57
2022/03/19 18:32:19;;;;;;;640.12;584.53;;;;;;;;;;;;;-64
2022/03/19 18:35:14;;;;;;;643.25;587.51;;;;;;;;;;;;;-56
2022/03/19 18:38:14;;;;;;;644.52;588.72;;;;;;;;;;;;;-51
2022/03/19 18:41:14;;;;;;;647.28;591.31;;;;;;;;;;;;;-60
2022/03/19 18:44:14;;;;;;;646.50;590.50;;;;;;;;;;;;;-54
2022/03/19 18:47:14;;;;;;;644.86;589.11;;;;;;;;;;;;;-52
2022/03/19 18:50:14;;;;;;;642.79;587.11;;;;;;;;;;;;;-56
2022/03/19 18:53:14;;;;;;;643.87;588.08;;;;;;;;;;;;;-60
2022/03/19 18:56:14;;;;;;;647.01;591.05;;;;;;;;;;;;;-60
2022/03/19 18:59:14;;;;;;;644.83;589.02;;;;;;;;;;;;;-58
2022/03/19 19:02:14;;;;;;;642.94;586.42;;;;;;;;;;;;;-62
2022/03/19 19:05:15;;;;;;;639.06;582.93;;;;;;;;;;;;;-63
2022/03/19 19:08:14;;;;;;;638.09;581.87;;;;;;;;;;;;;-56
2022/03/19 19:11:14;;;;;;;641.91;585.15;;;;;;;;;;;;;-51
2022/03/19 19:14:14;;;;;;;635.59;579.85;;;;;;;;;;;;;-50
2022/03/19 19:17:14;;;;;;;635.35;579.22;;;;;;;;;;;;;-50
2022/03/19 19:20:14;;;;;;;637.51;581.96;;;;;;;;;;;;;-57
2022/03/19 19:23:14;;;;;;;638.80;582.94;;;;;;;;;;;;;-57
2022/03/19 19:26:14;;;;;;;641.74;586.01;;;;;;;;;;;;;-56
2022/03/19 19:29:14;;;;;;;639.94;584.17;;;;;;;;;;;;;-57
2022/03/19 19:32:14;;;;;;;641.88;586.16;;;;;;;;;;;;;-51
2022/03/19 19:35:14;;;;;;;640.87;585.15;;;;;;;;;;;;;-50
2022/03/19 19:38:14;;;;;;;643.51;587.73;;;;;;;;;;;;;-50
2022/03/19 19:41:14;;;;;;;646.03;589.97;;;;;;;;;;;;;-57
2022/03/19 19:44:14;;;;;;;643.73;587.93;;;;;;;;;;;;;-56
2022/03/19 19:47:14;;;;;;;642.75;586.86;;;;;;;;;;;;;-57
2022/03/19 19:50:15;;;;;;;640.70;584.87;;;;;;;;;;;;;-57
2022/03/19 19:53:14;;;;;;;645.35;589.47;;;;;;;;;;;;;-55
2022/03/19 19:56:14;;;;;;;638.93;583.36;;;;;;;;;;;;;-51
2022/03/19 19:59:14;;;;;;;641.84;586.09;;;;;;;;;;;;;-52
2022/03/19 20:02:14;;;;;;;637.27;581.70;;;;;;;;;;;;;-51
2022/03/19 20:05:14;;;;;;;643.77;587.87;;;;;;;;;;;;;-51
2022/03/19 20:08:14;;;;;;;637.66;582.17;;;;;;;;;;;;;-51
2022/03/19 20:11:14;;;;;;;638.06;582.44;;;;;;;;;;;;;-50
2022/03/19 20:14:14;;;;;;;635.87;580.33;;;;;;;;;;;;;-56
2022/03/19 20:17:14;;;;;;;639.92;584.25;;;;;;;;;;;;;-51
2022/03/19 20:20:14;;;;;;;636.66;581.09;;;;;;;;;;;;;-51
2022/03/19 20:23:14;;;;;;;640.68;584.99;;;;;;;;;;;;;-55
2022/03/19 20:26:14;;;;;;;635.49;579.99;;;;;;;;;;;;;-55
2022/03/19 20:29:15;;;;;;;635.24;579.75;;;;;;;;;;;;;-56
2022/03/19 20:32:14;;;;;;;636.56;580.92;;;;;;;;;;;;;-55
2022/03/19 20:35:14;;;;;;;629.18;573.80;;;;;;;;;;;;;-51
2022/03/19 20:38:14;;;;;;;632.00;576.50;;;;;;;;;;;;;-57
2022/03/19 20:41:14;;;;;;;633.59;578.20;;;;;;;;;;;;;-56
2022/03/19 20:44:14;;;;;;;634.11;578.51;;;;;;;;;;;;;-50
2022/03/19 20:47:14;;;;;;;635.44;579.95;;;;;;;;;;;;;-51
2022/03/19 20:50:16;;;;;;;629.89;574.63;;;;;;;;;;;;;-50
2022/03/19 20:53:14;;;;;;;627.38;572.30;;;;;;;;;;;;;-55
2022/03/19 20:56:14;;;;;;;628.99;573.59;;;;;;;;;;;;;-59
2022/03/19 20:59:15;;;;;;;622.95;567.51;;;;;;;;;;;;;-54
2022/03/19 21:02:14;;;;;;;624.99;569.73;;;;;;;;;;;;;-54
2022/03/19 21:05:14;;;;;;;623.19;568.03;;;;;;;;;;;;;-57
2022/03/19 21:08:14;;;;;;;624.05;568.89;;;;;;;;;;;;;-58
2022/03/19 21:11:56;;;;;;;627.36;572.07;;;;;;;;;;;;;-52
2022/03/19 21:14:14;;;;;;;626.84;571.66;;;;;;;;;;;;;-58
2022/03/19 21:17:16;;;;;;;625.39;570.19;;;;;;;;;;;;;-60
2022/03/19 21:20:16;;;;;;;626.43;571.29;;;;;;;;;;;;;-58
2022/03/19 21:23:14;;;;;;;630.11;574.68;;;;;;;;;;;;;-58
2022/03/19 21:26:14;;;;;;;623.45;568.39;;;;;;;;;;;;;-54